createdAt,value
2018-07-22T08:08:12.620Z,21.10
2018-07-22T08:10:42.998Z,22.30
2018-07-22T08:13:13.266Z,22.20
2018-07-22T08:15:41.970Z,22.30
2018-07-22T08:18:11.412Z,22.30
2018-07-22T08:20:40.006Z,22.40
2018-07-22T08:23:08.663Z,22.30
2018-07-22T08:25:38.192Z,22.40
2018-07-22T08:28:06.754Z,22.40
2018-07-22T08:30:35.910Z,22.40
2018-07-22T08:33:04.497Z,22.50
2018-07-22T08:35:33.144Z,22.50
2018-07-22T08:38:01.711Z,22.50
2018-07-22T08:40:30.322Z,22.60
2018-07-22T08:42:58.952Z,22.80
2018-07-22T08:47:56.842Z,23.00
2018-07-22T08:50:25.784Z,23.00
2018-07-22T08:52:54.457Z,23.10
2018-07-22T08:55:24.541Z,23.10
2018-07-22T08:57:53.558Z,23.10
2018-07-22T09:00:22.555Z,23.20
2018-07-22T09:02:51.264Z,23.30
2018-07-22T09:05:19.917Z,23.40
2018-07-22T09:07:49.032Z,23.50
2018-07-22T09:10:17.648Z,23.50
2018-07-22T09:12:46.237Z,23.60
2018-07-22T09:15:15.692Z,23.60
2018-07-22T09:17:45.427Z,23.70
2018-07-22T09:20:16.382Z,23.70
2018-07-22T09:22:46.619Z,23.80
2018-07-22T09:25:15.267Z,23.90
2018-07-22T09:27:44.406Z,24.00
2018-07-22T09:30:13.106Z,24.10
2018-07-22T09:32:43.162Z,24.10
2018-07-22T09:35:13.833Z,24.20
2018-07-22T09:37:42.367Z,24.20
2018-07-22T09:40:10.949Z,24.20
2018-07-22T09:42:39.572Z,24.30
2018-07-22T09:45:09.285Z,24.40
2018-07-22T09:47:37.852Z,24.60
2018-07-22T09:50:06.366Z,24.70
2018-07-22T09:52:35.847Z,24.80
2018-07-22T09:55:04.430Z,24.90
2018-07-22T09:57:34.774Z,25.00
2018-07-22T10:00:04.450Z,25.10
2018-07-22T10:02:33.172Z,25.20
2018-07-22T10:05:03.593Z,25.30
2018-07-22T10:07:33.906Z,25.40
2018-07-22T10:10:02.436Z,25.50
2018-07-22T10:12:31.085Z,25.50
2018-07-22T10:15:10.298Z,25.50
2018-07-22T10:17:40.188Z,25.60
2018-07-22T10:20:09.412Z,25.70
2018-07-22T10:22:39.126Z,25.70
2018-07-22T10:25:07.792Z,25.80
2018-07-22T10:27:36.322Z,25.80
2018-07-22T10:30:05.993Z,25.80
2018-07-22T10:32:35.572Z,25.90
2018-07-22T10:35:04.430Z,25.90
2018-07-22T10:37:33.003Z,26.00
2018-07-22T10:40:01.887Z,26.10
2018-07-22T10:42:30.504Z,26.10
2018-07-22T10:44:59.168Z,26.20
2018-07-22T10:47:27.797Z,26.30
2018-07-22T10:49:56.396Z,26.40
2018-07-22T10:52:25.703Z,26.50
2018-07-22T10:54:54.242Z,26.60
2018-07-22T10:57:22.761Z,26.70
2018-07-22T10:59:51.304Z,26.90
2018-07-22T11:02:19.886Z,27.10
2018-07-22T11:04:50.276Z,27.30
2018-07-22T11:07:18.901Z,27.50
2018-07-22T11:09:47.463Z,27.70
2018-07-22T11:12:16.032Z,27.80
2018-07-22T11:14:45.556Z,28.10
2018-07-22T11:17:14.110Z,28.30
2018-07-22T11:19:42.693Z,28.20
2018-07-22T11:22:12.422Z,28.20
2018-07-22T11:24:40.965Z,28.50
2018-07-22T11:27:09.659Z,28.80
2018-07-22T11:29:38.928Z,29.00
2018-07-22T11:32:07.645Z,29.40
2018-07-22T11:34:36.290Z,29.70
2018-07-22T11:37:04.850Z,30.10
2018-07-22T11:39:34.680Z,30.40
2018-07-22T11:42:03.313Z,30.70
2018-07-22T11:44:31.906Z,30.80
2018-07-22T11:47:02.123Z,30.80
2018-07-22T11:49:30.610Z,30.50
2018-07-22T11:51:59.338Z,30.40
2018-07-22T11:54:27.851Z,30.20
2018-07-22T11:56:56.360Z,29.90
2018-07-22T11:59:24.871Z,29.80
2018-07-22T12:01:54.051Z,29.90
2018-07-22T12:04:23.118Z,29.80
2018-07-22T12:06:52.648Z,29.80
2018-07-22T12:09:21.165Z,29.60
2018-07-22T12:11:49.794Z,29.40
2018-07-22T12:14:18.383Z,29.60
2018-07-22T12:16:46.967Z,30.10
2018-07-22T12:19:15.640Z,30.40
2018-07-22T12:21:44.277Z,30.60
2018-07-22T12:24:12.778Z,31.00
2018-07-22T12:26:42.022Z,31.20
2018-07-22T12:29:10.626Z,31.10
2018-07-22T12:31:39.194Z,30.90
2018-07-22T12:34:07.849Z,30.70
2018-07-22T12:36:36.775Z,30.50
2018-07-22T12:39:10.532Z,30.20
2018-07-22T12:41:39.213Z,30.30
2018-07-22T12:44:07.856Z,30.60
2018-07-22T12:46:36.587Z,30.80
2018-07-22T12:49:05.418Z,31.00
2018-07-22T12:51:35.161Z,31.30
2018-07-22T12:54:04.003Z,31.40
2018-07-22T12:56:32.616Z,31.30
2018-07-22T12:59:01.209Z,31.00
2018-07-22T13:01:29.807Z,30.80
2018-07-22T13:04:00.133Z,30.80
2018-07-22T13:06:29.636Z,30.90
2018-07-22T13:08:58.171Z,30.90
2018-07-22T13:11:27.249Z,31.10
2018-07-22T13:13:55.826Z,31.20
2018-07-22T13:16:27.080Z,31.00
2018-07-22T13:18:56.203Z,30.90
2018-07-22T13:21:25.388Z,31.10
2018-07-22T13:23:54.770Z,31.30
2018-07-22T13:26:23.854Z,31.60
2018-07-22T13:28:52.415Z,31.70
2018-07-22T13:31:20.995Z,31.80
2018-07-22T13:33:49.572Z,31.90
2018-07-22T13:36:18.153Z,31.80
2018-07-22T13:38:47.335Z,31.60
2018-07-22T13:41:15.988Z,31.50
2018-07-22T13:43:44.516Z,31.60
2018-07-22T13:46:13.156Z,32.40
2018-07-22T13:48:41.786Z,32.80
2018-07-22T13:51:11.197Z,32.90
2018-07-22T13:53:39.718Z,32.70
2018-07-22T13:56:08.335Z,32.70
2018-07-22T13:58:37.648Z,32.50
2018-07-22T14:01:06.958Z,33.70
2018-07-22T14:03:35.634Z,38.50
2018-07-22T14:06:04.438Z,38.50
2018-07-22T14:08:33.062Z,39.00
2018-07-22T14:11:02.264Z,38.60
2018-07-22T14:13:30.973Z,38.30
2018-07-22T14:16:00.130Z,38.00
2018-07-22T14:18:29.527Z,37.10
2018-07-22T14:20:58.072Z,36.70
2018-07-22T14:23:26.720Z,36.10
2018-07-22T14:25:55.314Z,35.60
2018-07-22T14:28:23.948Z,35.20
2018-07-22T14:30:52.680Z,34.50
2018-07-22T14:33:21.346Z,34.70
2018-07-22T14:35:50.472Z,33.90
2018-07-22T14:38:18.994Z,33.50
2018-07-22T14:40:47.599Z,33.20
2018-07-22T14:43:16.188Z,33.40
2018-07-22T14:45:44.766Z,37.80
2018-07-22T14:48:13.967Z,42.40
2018-07-22T14:50:42.477Z,42.30
2018-07-22T14:53:11.033Z,40.50
2018-07-22T14:55:39.545Z,39.00
2018-07-22T14:58:08.078Z,37.50
2018-07-22T15:00:36.600Z,36.90
2018-07-22T15:03:05.807Z,37.70
2018-07-22T15:05:34.375Z,37.10
2018-07-22T15:08:02.899Z,36.90
2018-07-22T15:10:31.447Z,37.30
2018-07-22T15:12:59.975Z,38.40
2018-07-22T15:15:28.600Z,38.10
2018-07-22T15:17:58.106Z,38.80
2018-07-22T15:20:27.307Z,38.50
2018-07-22T15:22:55.927Z,40.40
2018-07-22T15:25:24.544Z,41.50
2018-07-22T15:27:53.736Z,41.70
2018-07-22T15:30:22.283Z,42.70
2018-07-22T15:32:51.465Z,42.60
2018-07-22T15:35:20.036Z,43.80
2018-07-22T15:37:48.510Z,44.80
2018-07-22T15:40:17.442Z,45.20
2018-07-22T15:42:46.110Z,43.30
2018-07-22T15:45:14.665Z,41.30
2018-07-22T15:47:43.598Z,39.80
2018-07-22T15:50:12.143Z,38.60
2018-07-22T15:52:40.706Z,37.30
2018-07-22T15:55:09.213Z,36.20
2018-07-22T15:57:38.611Z,35.60
2018-07-22T16:00:10.124Z,35.00
2018-07-22T16:02:39.022Z,34.50
2018-07-22T16:05:07.543Z,33.90
2018-07-22T16:07:36.587Z,33.50
2018-07-22T16:10:05.796Z,33.10
2018-07-22T16:12:34.480Z,33.00
2018-07-22T16:15:03.090Z,32.80
2018-07-22T16:17:32.338Z,32.70
2018-07-22T16:20:00.877Z,32.70
2018-07-22T16:22:29.542Z,32.90
2018-07-22T16:24:58.102Z,33.70
2018-07-22T16:27:26.806Z,33.60
2018-07-22T16:29:55.464Z,33.70
2018-07-22T16:32:24.117Z,33.90
2018-07-22T16:34:52.720Z,34.60
2018-07-22T16:37:21.305Z,34.80
2018-07-22T16:39:49.905Z,35.90
2018-07-22T16:42:18.610Z,35.90
2018-07-22T16:44:47.133Z,35.60
2018-07-22T16:47:15.984Z,35.10
2018-07-22T16:49:44.563Z,34.70
2018-07-22T16:52:13.692Z,35.10
2018-07-22T16:54:42.289Z,35.40
2018-07-22T16:57:10.841Z,34.80
2018-07-22T16:59:39.441Z,34.80
2018-07-22T17:02:08.026Z,34.30
2018-07-22T17:04:36.505Z,33.50
2018-07-22T17:07:05.149Z,32.80
2018-07-22T17:09:33.767Z,32.50
2018-07-22T17:12:02.491Z,32.20
2018-07-22T17:14:31.076Z,31.80
2018-07-22T17:16:59.656Z,31.40
2018-07-22T17:19:29.305Z,30.80
2018-07-22T17:21:57.967Z,30.50
2018-07-22T17:24:27.407Z,29.90
2018-07-22T17:26:55.963Z,29.40
2018-07-22T17:29:24.535Z,29.10
2018-07-22T17:31:53.190Z,28.70
2018-07-22T17:34:21.697Z,28.40
2018-07-22T17:36:50.263Z,28.10
2018-07-22T17:39:18.761Z,27.90
2018-07-22T17:41:47.306Z,27.70
2018-07-22T17:44:15.817Z,27.60
2018-07-22T17:46:44.314Z,27.60
2018-07-22T17:49:12.808Z,27.80
2018-07-22T17:51:41.330Z,28.00
2018-07-22T17:54:09.903Z,28.20
2018-07-22T17:56:38.384Z,28.50
2018-07-22T17:59:06.985Z,28.70
2018-07-22T18:01:35.646Z,28.80
2018-07-22T18:04:04.237Z,28.90
2018-07-22T18:06:32.802Z,28.90
2018-07-22T18:09:01.366Z,28.90
2018-07-22T18:11:30.432Z,28.80
2018-07-22T18:14:01.845Z,28.70
2018-07-22T18:19:02.693Z,28.40
2018-07-22T18:21:33.886Z,28.30
2018-07-22T18:24:04.545Z,28.10
2018-07-22T18:26:33.363Z,27.90
2018-07-22T18:29:03.567Z,27.70
2018-07-22T18:31:34.247Z,27.50
2018-07-22T18:34:02.959Z,27.40
2018-07-22T18:36:32.104Z,27.30
2018-07-22T18:39:00.696Z,27.10
2018-07-22T18:41:29.933Z,26.90
2018-07-22T18:44:00.505Z,26.80
2018-07-22T18:46:31.206Z,26.70
2018-07-22T18:49:01.612Z,26.50
2018-07-22T18:51:31.228Z,26.30
2018-07-22T18:54:00.100Z,26.30
2018-07-22T18:58:57.562Z,26.00
2018-07-22T19:01:27.360Z,25.90
2018-07-22T19:03:57.185Z,25.80
2018-07-22T19:06:28.635Z,25.60
2018-07-22T19:08:58.221Z,25.50
2018-07-22T19:11:30.715Z,25.40
2018-07-22T19:13:59.600Z,25.30
2018-07-22T19:16:29.559Z,25.20
2018-07-22T19:19:13.374Z,25.00
2018-07-22T19:21:42.872Z,24.90
2018-07-22T19:24:11.860Z,24.80
2018-07-22T19:26:41.718Z,24.60
2018-07-22T19:29:13.092Z,24.50
2018-07-22T19:31:45.272Z,24.30
2018-07-22T19:34:14.777Z,24.20
2018-07-22T19:36:44.077Z,24.10
2018-07-22T19:39:14.591Z,24.00
2018-07-22T19:41:44.271Z,23.90
2018-07-22T19:44:14.365Z,23.80
2018-07-22T19:46:43.404Z,23.80
2018-07-22T19:49:13.150Z,23.70
2018-07-22T19:51:45.704Z,23.70
2018-07-22T19:54:16.287Z,23.60
2018-07-22T19:56:48.184Z,23.50
2018-07-22T19:59:53.425Z,23.50
2018-07-22T20:03:03.365Z,23.50
2018-07-22T20:05:32.718Z,23.60
2018-07-22T20:08:08.524Z,23.60
2018-07-22T20:10:57.415Z,23.60
2018-07-22T20:13:26.762Z,23.70
2018-07-22T20:15:57.426Z,23.60
2018-07-22T20:21:10.112Z,23.60
2018-07-22T20:23:39.011Z,23.50
2018-07-22T20:26:08.315Z,23.40
2018-07-22T20:28:37.112Z,23.40
2018-07-22T20:31:07.118Z,23.30
2018-07-22T20:33:37.451Z,23.20
2018-07-22T20:36:07.686Z,23.10
2018-07-22T20:38:37.078Z,23.00
2018-07-22T20:41:07.783Z,22.90
2018-07-22T20:43:37.900Z,22.90
2018-07-22T20:46:08.548Z,22.90
2018-07-22T20:51:06.901Z,22.80
2018-07-22T20:53:38.184Z,22.80
2018-07-22T20:56:06.994Z,22.80
2018-07-22T20:58:36.557Z,22.80
2018-07-22T21:01:06.787Z,22.80
2018-07-22T21:03:35.625Z,22.70
2018-07-22T21:06:05.268Z,22.60
2018-07-22T21:08:34.545Z,22.40
2018-07-22T21:11:04.423Z,22.40
2018-07-22T21:13:34.890Z,22.30
2018-07-22T21:16:04.983Z,22.20
2018-07-22T21:18:34.977Z,22.00
2018-07-22T21:21:03.603Z,21.90
2018-07-22T21:23:33.904Z,21.90
2018-07-22T21:26:04.132Z,21.80
2018-07-22T21:28:32.887Z,21.90
2018-07-22T21:31:01.556Z,21.90
2018-07-22T21:33:31.246Z,21.90
2018-07-22T21:35:59.806Z,21.80
2018-07-22T21:38:30.116Z,21.70
2018-07-22T21:41:00.857Z,21.70
2018-07-22T21:43:30.709Z,21.60
2018-07-22T21:46:00.003Z,21.60
2018-07-22T21:48:31.244Z,21.50
2018-07-22T21:51:00.006Z,21.50
2018-07-22T21:53:29.669Z,21.40
2018-07-22T21:55:59.565Z,21.40
2018-07-22T21:58:29.217Z,21.40
2018-07-22T22:01:01.498Z,21.30
2018-07-22T22:03:30.679Z,21.30
2018-07-22T22:05:59.634Z,21.20
2018-07-22T22:08:29.102Z,21.20
2018-07-22T22:11:00.914Z,21.20
2018-07-22T22:13:31.104Z,21.10
2018-07-22T22:16:00.346Z,21.10
2018-07-22T22:18:30.160Z,21.00
2018-07-22T22:20:58.884Z,21.00
2018-07-22T22:23:30.348Z,20.90
2018-07-22T22:25:58.935Z,20.90
2018-07-22T22:28:32.176Z,20.80
2018-07-22T22:31:01.357Z,20.90
2018-07-22T22:33:30.596Z,20.80
2018-07-22T22:36:01.595Z,20.70
2018-07-22T22:38:30.456Z,20.70
2018-07-22T22:41:01.823Z,20.70
2018-07-22T22:43:30.689Z,20.60
